Arcata, California
Current Conditions -  °F | °C
As of 1:32 PM on Saturday 25 Oct 2014 (Local Time) from KACV Reporting Station
Light Rain Light Rain  
Wind Chill: 57°   Ceiling: 2000
Heat Index: 57°   Visibility: 4mi
Dew Point: 54°   Wind: 18mph
Humidity: 89%   Direction: 240°WSW
Pressure: 29.85"   Gusts: 37mph
Location:  40.87°N, 124.08°W
Report Text: KACV 252032Z AUTO 24016G32KT 4SM R32/3000VP6000FT -RA BR FEW006 BKN020 OVC033 14/12 A2985 RMK AO2 PK WND 21049/2022 WSHFT 2015 RAB15 PRESRR P0006 T01390122
Loading
Personal Weather Stations






























Interactive Weather Map
Tropical Storm Tracking
New forecast layout! Learn more

10-Day Weather Forecast

Advertisements
Track Severe Weather on mobile